createdAt,value
2019-04-03T00:01:05.431Z,399
2019-04-03T00:02:12.634Z,399
2019-04-03T00:03:19.566Z,400
2019-04-03T00:04:26.801Z,400
2019-04-03T00:05:36.447Z,400
2019-04-03T00:06:43.654Z,399
2019-04-03T00:07:50.855Z,400
2019-04-03T00:08:58.060Z,400
2019-04-03T00:10:07.870Z,399
2019-04-03T00:11:15.107Z,399
2019-04-03T00:12:22.313Z,399
2019-04-03T00:13:29.521Z,399
2019-04-03T00:14:36.879Z,399
2019-04-03T00:15:46.085Z,399
2019-04-03T00:16:53.019Z,399
2019-04-03T00:18:00.326Z,398
2019-04-03T00:19:07.526Z,399
2019-04-03T00:20:14.839Z,398
2019-04-03T00:21:24.956Z,398
2019-04-03T00:22:32.249Z,398
2019-04-03T00:23:39.282Z,397
2019-04-03T00:24:46.822Z,396
2019-04-03T00:25:53.806Z,396
2019-04-03T00:27:01.006Z,397
2019-04-03T00:28:07.936Z,396
2019-04-03T00:29:14.728Z,396
2019-04-03T00:30:23.601Z,396
2019-04-03T00:31:30.808Z,396
2019-04-03T00:32:38.015Z,396
2019-04-03T00:33:45.347Z,396
2019-04-03T00:34:54.421Z,396
2019-04-03T00:36:01.648Z,396
2019-04-03T00:37:08.848Z,393
2019-04-03T00:38:15.783Z,394
2019-04-03T00:39:25.420Z,389
2019-04-03T00:40:32.707Z,391
2019-04-03T00:41:39.986Z,391
2019-04-03T00:42:47.201Z,388
2019-04-03T00:43:55.941Z,387
2019-04-03T00:45:03.249Z,385
2019-04-03T00:46:10.471Z,383
2019-04-03T00:47:17.683Z,383
2019-04-03T00:48:26.852Z,382
2019-04-03T00:49:34.245Z,381
2019-04-03T00:50:41.481Z,380
2019-04-03T00:51:48.684Z,380
2019-04-03T00:52:58.493Z,379
2019-04-03T00:54:05.459Z,379
2019-04-03T00:55:12.913Z,378
2019-04-03T00:56:19.842Z,377
2019-04-03T00:57:27.801Z,377
2019-04-03T00:58:34.738Z,377
2019-04-03T00:59:41.944Z,377
2019-04-03T01:00:48.885Z,377
2019-04-03T01:01:58.088Z,377
2019-04-03T01:03:05.018Z,376
2019-04-03T01:04:11.957Z,375
2019-04-03T01:05:19.164Z,376
2019-04-03T01:06:29.487Z,376
2019-04-03T01:07:36.898Z,376
2019-04-03T01:08:43.938Z,376
2019-04-03T01:09:51.152Z,376
2019-04-03T01:11:00.960Z,375
2019-04-03T01:12:08.417Z,375
2019-04-03T01:13:15.434Z,375
2019-04-03T01:14:22.670Z,374
2019-04-03T01:15:32.663Z,375
2019-04-03T01:16:39.863Z,375
2019-04-03T01:17:46.790Z,375
2019-04-03T01:18:53.726Z,374
2019-04-03T01:20:00.934Z,375
2019-04-03T01:21:08.097Z,373
2019-04-03T01:22:15.440Z,371
2019-04-03T01:23:22.740Z,370
2019-04-03T01:24:29.949Z,369
2019-04-03T01:25:40.164Z,368
2019-04-03T01:26:47.382Z,368
2019-04-03T01:27:54.714Z,366
2019-04-03T01:29:02.223Z,365
2019-04-03T01:30:09.512Z,364
2019-04-03T01:31:16.449Z,364
2019-04-03T01:32:23.425Z,365
2019-04-03T01:33:30.625Z,364
2019-04-03T01:34:38.267Z,364
2019-04-03T01:35:48.415Z,364
2019-04-03T01:36:55.651Z,365
2019-04-03T01:38:02.914Z,364
2019-04-03T01:39:10.143Z,365
2019-04-03T01:40:17.079Z,365
2019-04-03T01:41:27.064Z,365
2019-04-03T01:42:34.374Z,366
2019-04-03T01:43:41.643Z,365
2019-04-03T01:44:48.954Z,365
2019-04-03T01:45:58.160Z,366
2019-04-03T01:47:04.825Z,366
2019-04-03T01:48:12.074Z,366
2019-04-03T01:50:32.432Z,366
2019-04-03T01:51:39.905Z,365
2019-04-03T01:52:47.109Z,365
2019-04-03T01:53:54.307Z,365
2019-04-03T01:55:04.372Z,366
2019-04-03T01:56:11.417Z,366
2019-04-03T01:57:18.722Z,365
2019-04-03T01:58:26.005Z,365
2019-04-03T01:59:33.405Z,366
2019-04-03T02:00:40.611Z,366
2019-04-03T02:01:47.894Z,366
2019-04-03T02:02:55.300Z,365
2019-04-03T02:04:02.590Z,365
2019-04-03T02:05:13.308Z,365
2019-04-03T02:06:20.770Z,365
2019-04-03T02:07:27.970Z,365
2019-04-03T02:08:35.170Z,365
2019-04-03T02:09:42.373Z,365
2019-04-03T02:10:50.199Z,365
2019-04-03T02:11:57.425Z,365
2019-04-03T02:13:04.729Z,365
2019-04-03T02:14:12.041Z,365
2019-04-03T02:15:22.852Z,365
2019-04-03T02:16:30.282Z,365
2019-04-03T02:17:37.607Z,365
2019-04-03T02:18:44.977Z,364
2019-04-03T02:19:52.181Z,364
2019-04-03T02:20:59.342Z,365
2019-04-03T02:22:06.848Z,364
2019-04-03T02:23:14.054Z,364
2019-04-03T02:24:21.282Z,365
2019-04-03T02:25:29.971Z,365
2019-04-03T02:26:39.204Z,364
2019-04-03T02:27:46.408Z,364
2019-04-03T02:28:53.622Z,365
2019-04-03T02:30:00.916Z,365
2019-04-03T02:31:07.850Z,365
2019-04-03T02:32:15.148Z,365
2019-04-03T02:33:22.368Z,365
2019-04-03T02:34:36.022Z,365
2019-04-03T02:35:43.697Z,365
2019-04-03T02:36:51.154Z,365
2019-04-03T02:37:58.620Z,365
2019-04-03T02:39:06.081Z,365
2019-04-03T02:40:13.460Z,364
2019-04-03T02:41:20.966Z,364
2019-04-03T02:42:28.214Z,365
2019-04-03T02:43:35.332Z,364
2019-04-03T02:44:42.828Z,364
2019-04-03T02:45:50.447Z,365
2019-04-03T02:47:02.016Z,365
2019-04-03T02:48:09.368Z,364
2019-04-03T02:49:16.896Z,364
2019-04-03T02:50:24.290Z,365
2019-04-03T02:51:31.779Z,365
2019-04-03T02:52:39.387Z,364
2019-04-03T02:53:46.590Z,365
2019-04-03T02:54:54.389Z,364
2019-04-03T02:56:01.945Z,364
2019-04-03T02:57:09.229Z,364
2019-04-03T02:58:16.780Z,364
2019-04-03T02:59:28.558Z,365
2019-04-03T03:00:36.109Z,365
2019-04-03T03:01:43.767Z,364
2019-04-03T03:02:50.965Z,365
2019-04-03T03:03:58.484Z,365
2019-04-03T22:00:07.027Z,459
2019-04-03T22:01:16.102Z,459
2019-04-03T22:02:23.305Z,458
2019-04-03T22:03:30.237Z,458
2019-04-03T22:04:37.440Z,458
2019-04-03T22:05:44.637Z,459
2019-04-03T22:06:51.564Z,460
2019-04-03T22:07:59.779Z,459
2019-04-03T22:09:06.978Z,460
2019-04-03T22:10:14.178Z,462
2019-04-03T22:11:21.381Z,461
2019-04-03T22:12:28.587Z,463
2019-04-03T22:13:38.205Z,464
2019-04-03T22:14:45.818Z,464
2019-04-03T22:15:52.748Z,464
2019-04-03T22:16:59.950Z,463
2019-04-03T22:18:06.853Z,465
2019-04-03T22:19:14.057Z,465
2019-04-03T22:20:21.257Z,465
2019-04-03T22:21:28.193Z,465
2019-04-03T22:22:35.378Z,466
2019-04-03T22:23:42.585Z,466
2019-04-03T22:24:49.790Z,466
2019-04-03T22:25:56.718Z,465
2019-04-03T22:27:03.920Z,466
2019-04-03T22:28:14.069Z,466
2019-04-03T22:29:21.542Z,467
2019-04-03T22:30:28.745Z,469
2019-04-03T22:31:36.008Z,471
2019-04-03T22:32:43.216Z,470
2019-04-03T22:33:50.411Z,472
2019-04-03T22:35:00.524Z,473
2019-04-03T22:36:08.107Z,473
2019-04-03T22:37:15.308Z,474
2019-04-03T22:38:22.245Z,474
2019-04-03T22:39:29.388Z,474
2019-04-03T22:40:36.596Z,475
2019-04-03T22:41:44.289Z,475
2019-04-03T22:42:51.213Z,475
2019-04-03T22:43:58.415Z,475
2019-04-03T22:45:05.614Z,476
2019-04-03T22:46:12.820Z,477
2019-04-03T22:47:19.745Z,478
2019-04-03T22:48:28.511Z,479
2019-04-03T22:49:35.521Z,478
2019-04-03T22:50:42.454Z,480
2019-04-03T22:51:49.664Z,480
2019-04-03T22:52:56.860Z,482
2019-04-03T22:54:04.063Z,483
2019-04-03T22:55:11.304Z,485
2019-04-03T22:56:21.400Z,486
2019-04-03T22:57:28.333Z,485
2019-04-03T22:58:35.535Z,485
2019-04-03T22:59:42.469Z,486
2019-04-03T23:00:49.672Z,486
2019-04-03T23:01:56.877Z,486
2019-04-03T23:03:07.662Z,488
2019-04-03T23:04:14.861Z,488
2019-04-03T23:05:22.064Z,490
2019-04-03T23:06:29.269Z,492
2019-04-03T23:07:36.481Z,491
2019-04-03T23:08:43.684Z,492
2019-04-03T23:09:50.607Z,493
2019-04-03T23:11:01.510Z,493
2019-04-03T23:12:08.741Z,496
2019-04-03T23:13:15.672Z,495
2019-04-03T23:14:22.880Z,495
2019-04-03T23:15:29.808Z,495
2019-04-03T23:16:37.009Z,498
2019-04-03T23:17:45.919Z,497
2019-04-03T23:18:53.120Z,496
2019-04-03T23:20:00.326Z,495
2019-04-03T23:21:07.587Z,494
2019-04-03T23:22:14.790Z,493
2019-04-03T23:23:21.995Z,495
2019-04-03T23:24:30.373Z,494
2019-04-03T23:25:37.555Z,496
2019-04-03T23:26:44.759Z,495
2019-04-03T23:27:51.963Z,494
2019-04-03T23:28:59.167Z,495
2019-04-03T23:30:06.369Z,495
2019-04-03T23:31:16.867Z,496
2019-04-03T23:32:24.076Z,497
2019-04-03T23:33:31.495Z,497
2019-04-03T23:34:38.700Z,495
2019-04-03T23:35:45.904Z,496
2019-04-03T23:36:55.412Z,496
2019-04-03T23:38:02.608Z,496
2019-04-03T23:39:09.804Z,497
2019-04-03T23:40:16.735Z,496
2019-04-03T23:41:23.681Z,497
2019-04-03T23:42:30.885Z,499
2019-04-03T23:43:40.541Z,499
2019-04-03T23:44:47.743Z,499
2019-04-03T23:45:54.401Z,499
2019-04-03T23:47:01.334Z,502
2019-04-03T23:48:08.538Z,502
2019-04-03T23:49:15.736Z,503
2019-04-03T23:50:23.263Z,503
2019-04-03T23:51:30.184Z,503
2019-04-03T23:52:37.390Z,504
2019-04-03T23:53:44.584Z,503
2019-04-03T23:54:51.790Z,502
2019-04-03T23:55:58.724Z,503
2019-04-03T23:57:05.920Z,505
2019-04-03T23:58:14.811Z,506
2019-04-03T23:59:22.024Z,507
